createdAt,value
2019-05-11T00:03:02.365Z,100.00
2019-05-11T00:05:30.609Z,100.00
2019-05-11T00:07:58.882Z,100.00
2019-05-11T00:10:27.147Z,100.00
2019-05-11T00:12:55.435Z,100.00
2019-05-11T00:15:23.684Z,100.00
2019-05-11T00:17:51.984Z,100.00
2019-05-11T00:20:20.240Z,100.00
2019-05-11T00:22:48.521Z,100.00
2019-05-11T00:25:16.860Z,100.00
2019-05-11T00:27:45.139Z,100.00
2019-05-11T00:30:13.481Z,100.00
2019-05-11T00:32:41.836Z,100.00
2019-05-11T00:35:10.157Z,100.00
2019-05-11T00:37:38.424Z,100.00
2019-05-11T00:40:14.576Z,100.00
2019-05-11T00:42:36.729Z,100.00
2019-05-11T00:45:45.026Z,100.00
2019-05-11T00:48:13.299Z,100.00
2019-05-11T00:50:41.579Z,100.00
2019-05-11T00:53:09.841Z,100.00
2019-05-11T00:55:57.470Z,100.00
2019-05-11T00:58:25.740Z,100.00
2019-05-11T01:00:54.922Z,100.00
2019-05-11T01:03:23.155Z,100.00
2019-05-11T01:05:51.448Z,100.00
2019-05-11T01:08:19.711Z,100.00
2019-05-11T01:10:47.977Z,100.00
2019-05-11T01:13:16.248Z,100.00
2019-05-11T01:15:44.519Z,100.00
2019-05-11T01:18:42.823Z,100.00
2019-05-11T01:21:11.100Z,100.00
2019-05-11T01:23:39.814Z,100.00
2019-05-11T01:26:08.090Z,100.00
2019-05-11T01:28:36.359Z,100.00
2019-05-11T01:31:04.625Z,100.00
2019-05-11T01:33:32.884Z,100.00
2019-05-11T01:36:01.226Z,100.00
2019-05-11T01:38:29.494Z,100.00
2019-05-11T01:40:59.208Z,100.00
2019-05-11T01:43:39.965Z,100.00
2019-05-11T01:46:08.231Z,100.00
2019-05-11T01:48:36.504Z,100.00
2019-05-11T01:51:04.788Z,100.00
2019-05-11T01:53:33.058Z,100.00
2019-05-11T01:59:02.920Z,100.00
2019-05-11T02:01:31.194Z,100.00
2019-05-11T02:03:59.479Z,100.00
2019-05-11T02:06:27.775Z,100.00
2019-05-11T02:08:56.038Z,100.00
2019-05-11T02:11:24.310Z,100.00
2019-05-11T02:13:52.592Z,100.00
2019-05-11T02:16:20.870Z,100.00
2019-05-11T02:18:49.148Z,100.00
2019-05-11T02:21:17.408Z,100.00
2019-05-11T02:23:45.678Z,100.00
2019-05-11T02:26:13.944Z,100.00
2019-05-11T02:28:42.224Z,100.00
2019-05-11T02:31:10.491Z,100.00
2019-05-11T02:33:38.756Z,100.00
2019-05-11T02:36:07.030Z,100.00
2019-05-11T02:38:35.307Z,100.00
2019-05-11T02:41:03.576Z,100.00
2019-05-11T02:43:31.849Z,100.00
2019-05-11T02:46:00.130Z,100.00
2019-05-11T02:48:28.415Z,100.00
2019-05-11T02:51:36.741Z,100.00
2019-05-11T02:54:05.083Z,100.00
2019-05-11T02:56:33.357Z,100.00
2019-05-11T02:59:01.625Z,100.00
2019-05-11T03:01:29.899Z,100.00
2019-05-11T03:03:58.182Z,100.00
2019-05-11T03:06:26.448Z,100.00
2019-05-11T03:08:54.710Z,100.00
2019-05-11T03:11:22.990Z,100.00
2019-05-11T03:13:51.248Z,100.00
2019-05-11T03:16:19.514Z,100.00
2019-05-11T03:18:47.796Z,100.00
2019-05-11T03:21:16.081Z,100.00
2019-05-11T03:23:44.431Z,100.00
2019-05-11T03:26:12.708Z,100.00
2019-05-11T03:28:40.986Z,100.00
2019-05-11T03:31:09.342Z,100.00
2019-05-11T03:33:38.273Z,100.00
2019-05-11T03:36:06.551Z,100.00
2019-05-11T03:38:34.831Z,100.00
2019-05-11T03:41:03.192Z,100.00
2019-05-11T03:43:31.461Z,100.00
2019-05-11T03:45:59.741Z,100.00
2019-05-11T03:48:28.020Z,100.00
2019-05-11T03:50:56.344Z,100.00
2019-05-11T03:53:24.613Z,100.00
2019-05-11T03:55:52.883Z,100.00
2019-05-11T03:58:25.453Z,100.00
2019-05-11T04:00:51.136Z,100.00
2019-05-11T04:03:19.427Z,100.00
2019-05-11T04:05:47.713Z,100.00
2019-05-11T04:08:15.985Z,100.00
2019-05-11T04:10:44.263Z,100.00
2019-05-11T04:13:12.531Z,100.00
2019-05-11T04:15:40.812Z,100.00
2019-05-11T04:18:09.083Z,100.00
2019-05-11T04:20:37.364Z,100.00
2019-05-11T04:23:05.643Z,100.00
2019-05-11T04:25:33.910Z,100.00
2019-05-11T04:28:02.206Z,100.00
2019-05-11T04:30:30.463Z,100.00
2019-05-11T04:32:58.744Z,100.00
2019-05-11T04:35:27.035Z,100.00
2019-05-11T04:37:55.278Z,100.00
2019-05-11T04:40:23.556Z,100.00
2019-05-11T04:42:55.608Z,100.00
2019-05-11T04:45:21.821Z,100.00
2019-05-11T04:47:50.097Z,100.00
2019-05-11T04:50:18.380Z,100.00
2019-05-11T04:52:46.644Z,100.00
2019-05-11T04:55:14.908Z,100.00
2019-05-11T04:57:43.186Z,100.00
2019-05-11T05:00:45.312Z,100.00
2019-05-11T05:03:13.572Z,100.00
2019-05-11T05:05:41.855Z,100.00
2019-05-11T05:08:10.221Z,100.00
2019-05-11T05:10:38.499Z,100.00
2019-05-11T05:13:10.692Z,100.00
2019-05-11T05:15:36.772Z,100.00
2019-05-11T05:18:05.050Z,100.00
2019-05-11T05:20:33.338Z,100.00
2019-05-11T05:23:01.619Z,100.00
2019-05-11T05:25:29.887Z,100.00
2019-05-11T05:27:58.170Z,100.00
2019-05-11T05:30:26.443Z,100.00
2019-05-11T05:32:54.716Z,100.00
2019-05-11T05:35:22.996Z,100.00
2019-05-11T05:37:51.286Z,100.00
2019-05-11T05:40:19.554Z,100.00
2019-05-11T05:42:47.840Z,100.00
2019-05-11T05:45:16.108Z,100.00
2019-05-11T05:47:44.462Z,100.00
2019-05-11T05:50:12.836Z,100.00
2019-05-11T05:52:41.114Z,100.00
2019-05-11T05:55:09.463Z,100.00
2019-05-11T05:57:37.727Z,100.00
2019-05-11T06:00:46.034Z,100.00
2019-05-11T06:03:48.718Z,100.00
2019-05-11T06:06:16.982Z,100.00
2019-05-11T06:08:45.281Z,100.00
2019-05-11T06:11:13.510Z,100.00
2019-05-11T06:13:45.529Z,100.00
2019-05-11T06:16:12.607Z,100.00
2019-05-11T06:18:40.869Z,100.00
2019-05-11T06:21:09.133Z,100.00
2019-05-11T06:23:38.187Z,100.00
2019-05-11T06:26:06.458Z,100.00
2019-05-11T06:28:34.728Z,100.00
2019-05-11T06:31:03.034Z,100.00
2019-05-11T06:33:31.283Z,100.00
2019-05-11T06:35:59.541Z,100.00
2019-05-11T06:38:27.813Z,99.77
2019-05-11T06:40:56.092Z,98.90
2019-05-11T06:43:24.361Z,97.54
2019-05-11T06:45:52.634Z,97.16
2019-05-11T06:48:20.901Z,95.75
2019-05-11T06:50:49.256Z,96.52
2019-05-11T06:53:17.517Z,93.53
2019-05-11T06:55:45.774Z,92.57
2019-05-11T06:58:14.053Z,92.39
2019-05-11T07:00:42.388Z,92.35
2019-05-11T07:03:10.644Z,92.58
2019-05-11T07:05:38.923Z,90.28
2019-05-11T07:08:07.186Z,90.32
2019-05-11T07:10:35.465Z,90.61
2019-05-11T07:13:03.737Z,90.87
2019-05-11T07:15:32.014Z,89.03
2019-05-11T07:18:00.289Z,84.16
2019-05-11T07:20:28.550Z,84.84
2019-05-11T07:22:56.822Z,82.99
2019-05-11T07:25:25.097Z,82.92
2019-05-11T07:27:53.735Z,83.01
2019-05-11T07:30:22.002Z,81.02
2019-05-11T07:32:50.311Z,80.03
2019-05-11T07:35:18.912Z,78.45
2019-05-11T07:37:48.592Z,76.62
2019-05-11T07:40:38.378Z,77.07
2019-05-11T07:43:19.060Z,75.27
2019-05-11T07:45:48.025Z,75.27
2019-05-11T07:48:18.655Z,73.83
2019-05-11T07:50:48.036Z,71.94
2019-05-11T07:53:18.649Z,71.21
2019-05-11T07:55:48.498Z,73.33
2019-05-11T07:58:20.435Z,73.66
2019-05-11T08:00:48.836Z,73.04
2019-05-11T08:03:18.071Z,73.62
2019-05-11T08:05:47.967Z,70.26
2019-05-11T08:08:18.119Z,70.61
2019-05-11T08:10:48.306Z,72.30
2019-05-11T08:13:17.902Z,73.89
2019-05-11T08:15:48.841Z,72.25
2019-05-11T08:18:18.920Z,75.76
2019-05-11T08:20:47.944Z,72.90
2019-05-11T08:23:18.081Z,73.71
2019-05-11T08:25:48.631Z,72.06
2019-05-11T08:28:18.303Z,70.40
2019-05-11T08:30:48.668Z,69.81
2019-05-11T08:33:18.226Z,69.30
2019-05-11T08:35:48.072Z,69.44
2019-05-11T08:38:58.507Z,69.42
2019-05-11T08:41:28.062Z,66.64
2019-05-11T08:43:58.692Z,68.29
2019-05-11T08:46:28.076Z,68.53
2019-05-11T08:48:59.490Z,66.03
2019-05-11T08:51:28.102Z,66.26
2019-05-11T08:53:58.348Z,61.66
2019-05-11T08:56:28.956Z,60.91
2019-05-11T08:58:58.807Z,61.21
2019-05-11T09:01:28.689Z,60.73
2019-05-11T09:03:58.382Z,62.43
2019-05-11T09:06:28.388Z,59.50
2019-05-11T09:08:58.323Z,61.03
2019-05-11T09:11:28.365Z,58.24
2019-05-11T09:13:57.906Z,61.04
2019-05-11T09:16:29.060Z,62.15
2019-05-11T09:18:58.094Z,60.97
2019-05-11T09:21:28.133Z,58.27
2019-05-11T09:23:57.988Z,58.89
2019-05-11T09:26:28.454Z,58.92
2019-05-11T09:28:58.168Z,60.11
2019-05-11T09:31:27.922Z,58.84
2019-05-11T09:33:58.442Z,59.87
2019-05-11T09:36:28.355Z,59.63
2019-05-11T09:38:58.151Z,59.62
2019-05-11T09:41:28.768Z,61.35
2019-05-11T09:43:58.591Z,60.95
2019-05-11T09:46:27.868Z,59.37
2019-05-11T09:48:58.809Z,60.13
2019-05-11T09:51:28.585Z,59.48
2019-05-11T09:53:58.609Z,62.05
2019-05-11T09:56:28.675Z,59.86
2019-05-11T09:58:58.181Z,58.94
2019-05-11T10:01:26.352Z,59.71
2019-05-11T10:03:54.618Z,59.76
2019-05-11T10:06:22.895Z,57.72
2019-05-11T10:08:51.154Z,57.30
2019-05-11T10:11:19.431Z,53.62
2019-05-11T10:13:47.939Z,57.41
2019-05-11T10:16:17.952Z,57.29
2019-05-11T10:18:48.893Z,56.31
2019-05-11T10:21:18.557Z,56.74
2019-05-11T10:23:48.651Z,56.31
2019-05-11T10:26:18.412Z,58.25
2019-05-11T10:28:48.128Z,55.56
2019-05-11T10:31:18.093Z,54.91
2019-05-11T10:33:48.670Z,53.92
2019-05-11T10:36:18.586Z,55.23
2019-05-11T10:38:48.434Z,56.03
2019-05-11T10:41:18.045Z,54.57
2019-05-11T10:43:48.627Z,57.63
2019-05-11T10:46:22.509Z,54.94
2019-05-11T10:48:48.355Z,54.86
2019-05-11T10:51:18.323Z,56.67
2019-05-11T10:53:49.526Z,57.71
2019-05-11T10:56:17.843Z,56.76
2019-05-11T10:58:48.198Z,56.40
2019-05-11T11:01:18.185Z,55.08
2019-05-11T11:03:48.398Z,54.30
2019-05-11T11:06:18.601Z,55.94
2019-05-11T11:08:48.422Z,56.97
2019-05-11T11:11:18.399Z,55.69
2019-05-11T11:13:47.998Z,54.87
2019-05-11T11:16:32.710Z,56.63
2019-05-11T11:18:48.502Z,55.72
2019-05-11T11:21:21.715Z,55.98
2019-05-11T11:23:48.012Z,53.78
2019-05-11T11:26:18.241Z,52.19
2019-05-11T11:28:47.720Z,52.57
2019-05-11T11:31:18.386Z,51.95
2019-05-11T11:33:48.627Z,52.01
2019-05-11T11:36:17.871Z,52.81
2019-05-11T11:38:47.759Z,53.17
2019-05-11T11:41:18.642Z,54.35
2019-05-11T11:43:48.418Z,52.78
2019-05-11T11:46:18.562Z,53.24
2019-05-11T11:48:48.555Z,52.42
2019-05-11T11:51:18.530Z,49.36
2019-05-11T11:53:47.724Z,51.60
2019-05-11T11:56:18.852Z,52.42
2019-05-11T11:58:48.523Z,54.28
2019-05-11T12:01:18.654Z,53.91
2019-05-11T12:03:48.486Z,54.02
2019-05-11T12:06:18.258Z,52.52
2019-05-11T12:08:46.205Z,51.55
2019-05-11T12:11:14.468Z,50.14
2019-05-11T12:13:43.657Z,51.16
2019-05-11T12:16:11.920Z,51.95
2019-05-11T12:18:40.191Z,52.24
2019-05-11T12:21:08.445Z,49.97
2019-05-11T12:23:38.140Z,53.07
2019-05-11T12:26:08.507Z,51.44
2019-05-11T12:28:38.196Z,50.06
2019-05-11T12:31:08.632Z,49.66
2019-05-11T12:33:38.561Z,49.44
2019-05-11T12:36:07.986Z,51.19
2019-05-11T12:38:38.222Z,50.25
2019-05-11T12:41:08.806Z,50.44
2019-05-11T12:43:38.152Z,50.89
2019-05-11T12:46:08.007Z,51.08
2019-05-11T12:48:37.929Z,52.08
2019-05-11T12:51:08.045Z,52.29
2019-05-11T12:53:38.462Z,53.46
2019-05-11T12:56:08.279Z,55.06
2019-05-11T12:58:36.689Z,53.12
2019-05-11T13:01:04.982Z,51.64
2019-05-11T13:03:33.261Z,52.42
2019-05-11T13:06:01.530Z,50.92
2019-05-11T13:08:29.812Z,54.06
2019-05-11T13:10:58.517Z,52.00
2019-05-11T13:13:28.615Z,52.37
2019-05-11T13:15:58.521Z,51.54
2019-05-11T13:18:28.094Z,53.51
2019-05-11T13:20:58.618Z,51.90
2019-05-11T13:23:27.822Z,54.17
2019-05-11T13:25:58.375Z,53.27
2019-05-11T13:28:28.256Z,51.12
2019-05-11T13:30:57.999Z,53.00
2019-05-11T13:33:28.028Z,52.18
2019-05-11T13:35:57.919Z,53.48
2019-05-11T13:38:28.345Z,52.04
2019-05-11T13:40:58.433Z,52.57
2019-05-11T13:43:28.054Z,52.95
2019-05-11T13:45:58.455Z,49.21
2019-05-11T13:48:28.127Z,51.11
2019-05-11T13:50:58.200Z,51.84
2019-05-11T13:53:27.599Z,49.49
2019-05-11T13:55:58.533Z,51.08
2019-05-11T13:58:27.784Z,48.94
2019-05-11T14:00:58.543Z,48.75
2019-05-11T14:03:27.680Z,46.82
2019-05-11T14:05:58.188Z,47.65
2019-05-11T14:08:27.821Z,50.39
2019-05-11T14:10:58.050Z,48.48
2019-05-11T14:13:28.578Z,50.28
2019-05-11T14:15:58.625Z,50.89
2019-05-11T14:18:28.230Z,50.28
2019-05-11T14:20:58.552Z,49.02
2019-05-11T14:23:29.121Z,49.05
2019-05-11T14:25:57.635Z,47.63
2019-05-11T14:28:28.507Z,49.92
2019-05-11T14:30:57.889Z,49.75
2019-05-11T14:33:28.313Z,49.16
2019-05-11T14:35:57.823Z,48.38
2019-05-11T14:38:28.241Z,47.91
2019-05-11T14:40:58.553Z,48.13
2019-05-11T14:43:27.758Z,48.19
2019-05-11T14:45:57.833Z,49.00
2019-05-11T14:48:29.875Z,47.00
2019-05-11T14:50:59.086Z,49.17
2019-05-11T14:53:28.336Z,48.83
2019-05-11T14:55:58.480Z,48.30
2019-05-11T14:58:28.049Z,48.80
2019-05-11T15:00:58.350Z,48.16
2019-05-11T15:03:28.767Z,49.53
2019-05-11T15:05:58.251Z,49.57
2019-05-11T15:08:28.588Z,49.35
2019-05-11T15:10:57.663Z,48.92
2019-05-11T15:13:28.664Z,48.56
2019-05-11T15:15:58.537Z,50.17
2019-05-11T15:18:37.931Z,48.60
2019-05-11T15:20:58.068Z,47.90
2019-05-11T15:25:55.706Z,48.90
2019-05-11T15:28:23.967Z,47.95
2019-05-11T15:30:52.313Z,48.58
2019-05-11T15:33:20.599Z,48.25
2019-05-11T15:35:48.874Z,48.90
2019-05-11T15:38:17.825Z,48.60
2019-05-11T15:40:48.740Z,50.37
2019-05-11T15:43:17.949Z,49.53
2019-05-11T15:45:48.722Z,47.02
2019-05-11T15:48:18.722Z,48.60
2019-05-11T15:50:48.596Z,49.84
2019-05-11T15:53:17.812Z,49.38
2019-05-11T15:56:21.204Z,49.19
2019-05-11T15:58:49.491Z,48.72
2019-05-11T16:01:18.569Z,49.29
2019-05-11T16:03:49.997Z,49.98
2019-05-11T16:06:18.580Z,48.56
2019-05-11T16:08:47.760Z,49.92
2019-05-11T16:11:18.106Z,51.26
2019-05-11T16:13:48.204Z,49.40
2019-05-11T16:16:16.036Z,49.32
2019-05-11T16:18:44.320Z,49.45
2019-05-11T16:21:12.592Z,50.27
2019-05-11T16:23:41.258Z,50.43
2019-05-11T16:26:09.520Z,48.92
2019-05-11T16:28:38.385Z,50.16
2019-05-11T16:31:09.132Z,50.11
2019-05-11T16:33:38.506Z,50.25
2019-05-11T16:36:09.065Z,51.15
2019-05-11T16:38:38.003Z,50.67
2019-05-11T16:41:08.953Z,51.20
2019-05-11T16:43:38.532Z,49.76
2019-05-11T16:46:08.666Z,49.10
2019-05-11T16:48:38.291Z,48.90
2019-05-11T16:51:08.683Z,49.25
2019-05-11T16:53:38.799Z,47.34
2019-05-11T16:56:08.368Z,47.09
2019-05-11T16:58:40.653Z,45.99
2019-05-11T17:01:08.641Z,48.24
2019-05-11T17:03:38.484Z,48.97
2019-05-11T17:06:08.364Z,47.00
2019-05-11T17:08:38.396Z,47.62
2019-05-11T17:11:08.220Z,49.77
2019-05-11T17:13:38.022Z,46.45
2019-05-11T17:16:08.609Z,45.88
2019-05-11T17:18:36.944Z,48.01
2019-05-11T17:21:07.615Z,47.18
2019-05-11T17:23:35.286Z,49.16
2019-05-11T17:26:03.563Z,47.71
2019-05-11T17:28:31.832Z,47.82
2019-05-11T17:31:02.951Z,47.95
2019-05-11T17:33:30.107Z,50.33
2019-05-11T17:35:58.826Z,48.88
2019-05-11T17:38:28.357Z,50.05
2019-05-11T17:40:57.715Z,49.86
2019-05-11T17:43:28.133Z,50.40
2019-05-11T17:45:58.489Z,51.39
2019-05-11T17:48:28.179Z,50.52
2019-05-11T17:50:58.146Z,53.03
2019-05-11T17:53:28.576Z,52.71
2019-05-11T17:55:57.829Z,51.03
2019-05-11T17:58:26.695Z,53.83
2019-05-11T18:00:54.966Z,52.63
2019-05-11T18:03:23.241Z,52.32
2019-05-11T18:05:51.517Z,54.43
2019-05-11T18:08:19.792Z,56.11
2019-05-11T18:10:48.074Z,55.55
2019-05-11T18:13:16.353Z,55.76
2019-05-11T18:15:44.622Z,55.10
2019-05-11T18:18:12.906Z,54.87
2019-05-11T18:20:41.170Z,55.99
2019-05-11T18:23:09.442Z,58.37
2019-05-11T18:25:38.982Z,59.40
2019-05-11T18:28:07.710Z,58.49
2019-05-11T18:30:35.971Z,59.28
2019-05-11T18:33:04.244Z,57.86
2019-05-11T18:36:12.559Z,59.49
2019-05-11T18:38:40.821Z,58.35
2019-05-11T18:41:09.084Z,60.65
2019-05-11T18:43:38.212Z,61.71
2019-05-11T18:46:08.509Z,60.29
2019-05-11T18:48:38.071Z,61.70
2019-05-11T18:51:08.542Z,62.24
2019-05-11T18:53:36.666Z,63.53
2019-05-11T18:56:04.942Z,63.64
2019-05-11T18:58:33.212Z,63.15
2019-05-11T19:01:01.498Z,62.99
2019-05-11T19:03:29.774Z,62.85
2019-05-11T19:05:58.036Z,62.69
2019-05-11T19:08:27.937Z,63.93
2019-05-11T19:10:58.014Z,66.93
2019-05-11T19:13:28.166Z,68.67
2019-05-11T19:15:58.392Z,70.13
2019-05-11T19:18:28.208Z,70.87
2019-05-11T19:20:58.634Z,70.02
2019-05-11T19:23:28.469Z,71.16
2019-05-11T19:25:57.895Z,70.21
2019-05-11T19:28:28.138Z,71.12
2019-05-11T19:30:56.346Z,71.29
2019-05-11T19:33:24.624Z,70.66
2019-05-11T19:35:52.908Z,69.97
2019-05-11T19:38:21.565Z,70.02
2019-05-11T19:40:49.836Z,71.38
2019-05-11T19:43:18.713Z,72.36
2019-05-11T19:45:48.697Z,73.64
2019-05-11T19:48:18.105Z,74.65
2019-05-11T19:51:00.921Z,75.81
2019-05-11T19:53:18.631Z,76.41
2019-05-11T19:55:47.911Z,77.07
2019-05-11T19:58:19.209Z,77.43
2019-05-11T20:00:48.653Z,77.79
2019-05-11T20:03:18.218Z,77.55
2019-05-11T20:05:48.353Z,77.53
2019-05-11T20:08:18.265Z,78.20
2019-05-11T20:10:48.501Z,78.77
2019-05-11T20:13:17.903Z,78.60
2019-05-11T20:15:48.349Z,78.01
2019-05-11T20:18:29.216Z,78.40
2019-05-11T20:20:57.479Z,78.40
2019-05-11T20:23:25.761Z,78.93
2019-05-11T20:29:02.082Z,78.52
2019-05-11T20:31:30.352Z,77.34
2019-05-11T20:33:59.293Z,77.19
2019-05-11T20:36:27.556Z,77.81
2019-05-11T20:38:55.843Z,77.93
2019-05-11T20:41:24.116Z,77.46
2019-05-11T20:43:52.417Z,77.50
2019-05-11T20:46:20.689Z,78.54
2019-05-11T20:48:48.948Z,78.74
2019-05-11T20:51:32.850Z,79.17
2019-05-11T20:53:48.967Z,78.89
2019-05-11T20:56:17.796Z,79.72
2019-05-11T20:59:07.860Z,79.86
2019-05-11T21:01:55.432Z,79.63
2019-05-11T21:04:23.700Z,80.19
2019-05-11T21:06:51.985Z,80.54
2019-05-11T21:09:20.248Z,80.88
2019-05-11T21:11:48.506Z,81.32
2019-05-11T21:14:18.188Z,81.89
2019-05-11T21:16:47.855Z,82.18
2019-05-11T21:19:18.811Z,82.07
2019-05-11T21:21:53.239Z,82.47
2019-05-11T21:24:18.741Z,82.63
2019-05-11T21:26:47.947Z,82.89
2019-05-11T21:29:31.380Z,82.61
2019-05-11T21:31:59.125Z,83.05
2019-05-11T21:34:28.531Z,83.16
2019-05-11T21:36:56.787Z,82.68
2019-05-11T21:39:25.079Z,82.40
2019-05-11T21:41:53.345Z,83.12
2019-05-11T21:44:21.600Z,83.29
2019-05-11T21:46:49.866Z,82.67
2019-05-11T21:49:18.574Z,82.86
2019-05-11T21:51:56.757Z,83.30
2019-05-11T21:54:18.103Z,83.95
2019-05-11T21:56:48.754Z,83.32
2019-05-11T21:59:18.265Z,83.86
2019-05-11T22:01:48.544Z,84.04
2019-05-11T22:04:18.998Z,83.97
2019-05-11T22:06:48.351Z,84.98
2019-05-11T22:09:18.407Z,84.56
2019-05-11T22:11:48.531Z,84.93
2019-05-11T22:14:16.248Z,84.91
2019-05-11T22:16:44.531Z,84.76
2019-05-11T22:19:12.798Z,84.45
2019-05-11T22:21:41.063Z,85.23
2019-05-11T22:24:09.344Z,85.70
2019-05-11T22:26:38.042Z,85.84
2019-05-11T22:29:07.957Z,86.09
2019-05-11T22:31:38.299Z,86.59
2019-05-11T22:34:08.920Z,87.25
2019-05-11T22:36:38.561Z,87.39
2019-05-11T22:39:49.477Z,87.63
2019-05-11T22:42:18.422Z,87.58
2019-05-11T22:44:48.360Z,87.95
2019-05-11T22:47:17.930Z,88.25
2019-05-11T22:49:49.625Z,88.79
2019-05-11T22:52:18.038Z,88.04
2019-05-11T22:54:48.471Z,88.56
2019-05-11T22:57:17.495Z,88.65
2019-05-11T22:59:45.771Z,89.43
2019-05-11T23:02:14.025Z,90.02
2019-05-11T23:04:42.279Z,90.24
2019-05-11T23:07:10.563Z,90.44
2019-05-11T23:09:38.823Z,90.84
2019-05-11T23:12:09.020Z,90.95
2019-05-11T23:14:37.700Z,91.38
2019-05-11T23:17:08.105Z,91.04
2019-05-11T23:19:38.164Z,91.66
2019-05-11T23:22:08.292Z,92.49
2019-05-11T23:24:37.102Z,92.67
2019-05-11T23:27:07.858Z,92.82
2019-05-11T23:29:35.364Z,93.55
2019-05-11T23:32:03.628Z,94.19
2019-05-11T23:34:31.891Z,94.10
2019-05-11T23:37:00.166Z,94.47
2019-05-11T23:39:28.419Z,94.86
2019-05-11T23:41:58.632Z,95.45
2019-05-11T23:44:26.663Z,95.11
2019-05-11T23:46:54.922Z,95.49
2019-05-11T23:49:23.201Z,95.32
2019-05-11T23:51:51.468Z,95.17
2019-05-11T23:54:19.730Z,95.33
2019-05-11T23:56:48.028Z,95.46
2019-05-11T23:59:18.641Z,95.66
